Time,TemperatureF,DewpointF,PressureIn,WindDirection,WindDirectionDegrees,WindSpeedMPH,WindSpeedGustMPH,Humidity,HourlyPrecipIn,Conditions,Clouds,dailyrainin,SoftwareType,DateUTC
2013-03-01 00:01:00,23.2,4.0,30.22,SW,226,3.1,3.1,43,0.00,,BKN120,0.00,VWS V14.01,2013-03-01 07:01:00,
2013-03-01 00:06:00,23.5,4.3,30.22,SW,219,4.0,4.9,43,0.00,,CLR,0.00,VWS V14.01,2013-03-01 07:06:00,
2013-03-01 00:11:00,24.1,4.8,30.22,SW,232,4.9,5.4,43,0.00,,CLR,0.00,VWS V14.01,2013-03-01 07:11:00,
2013-03-01 00:16:00,24.1,4.8,30.22,SW,219,3.1,5.4,43,0.00,,CLR,0.00,VWS V14.01,2013-03-01 07:16:00,
2013-03-01 00:21:00,24.8,5.5,30.22,South,191,4.0,5.4,43,0.00,,CLR,0.00,VWS V14.01,2013-03-01 07:21:00,
2013-03-01 00:26:00,25.5,5.6,30.22,SW,225,5.4,5.4,42,0.00,,CLR,0.00,VWS V14.01,2013-03-01 07:26:00,
2013-03-01 00:31:00,25.9,6.0,30.22,WSW,241,5.4,5.4,42,0.00,,CLR,0.00,VWS V14.01,2013-03-01 07:31:00,
2013-03-01 00:36:00,25.9,6.0,30.22,SSW,209,4.9,6.3,42,0.00,,CLR,0.00,VWS V14.01,2013-03-01 07:36:00,
2013-03-01 00:41:00,26.6,6.6,30.22,SSW,194,4.9,6.3,42,0.00,,CLR,0.00,VWS V14.01,2013-03-01 07:41:00,
2013-03-01 00:46:00,26.8,6.8,30.22,West,270,5.4,6.3,42,0.00,,CLR,0.00,VWS V14.01,2013-03-01 07:46:00,
2013-03-01 00:51:00,26.6,7.1,30.22,West,267,4.0,6.3,43,0.00,,CLR,0.00,VWS V14.01,2013-03-01 07:51:00,
2013-03-01 00:56:00,26.2,6.3,30.22,West,267,0.0,6.3,42,0.00,,CLR,0.00,VWS V14.01,2013-03-01 07:56:00,
2013-03-01 01:01:00,26.2,6.3,30.22,West,267,0.0,0.0,42,0.00,,CLR,0.00,VWS V14.01,2013-03-01 08:01:00,
2013-03-01 01:06:00,26.8,7.3,30.22,West,271,3.1,3.1,43,0.00,,OVC090,0.00,VWS V14.01,2013-03-01 08:06:00,
2013-03-01 01:11:00,26.1,7.2,30.22,SW,232,3.6,4.0,44,0.00,,OVC090,0.00,VWS V14.01,2013-03-01 08:11:00,
2013-03-01 01:16:00,26.1,7.2,30.22,SSW,203,4.9,5.8,44,0.00,,OVC090,0.00,VWS V14.01,2013-03-01 08:16:00,
2013-03-01 01:21:00,26.1,6.6,30.22,SSW,205,4.0,6.3,43,0.00,,OVC090,0.00,VWS V14.01,2013-03-01 08:21:00,
2013-03-01 01:26:00,26.1,6.1,30.22,SW,215,2.7,6.3,42,0.00,,OVC090,0.00,VWS V14.01,2013-03-01 08:26:00,
2013-03-01 01:31:00,25.9,6.5,30.22,West,260,4.0,4.0,43,0.00,,OVC090,0.00,VWS V14.01,2013-03-01 08:31:00,
2013-03-01 01:36:00,24.1,5.3,30.22,West,262,3.1,4.0,44,0.00,,OVC090,0.00,VWS V14.01,2013-03-01 08:36:00,
2013-03-01 01:41:00,22.5,3.9,30.22,WSW,253,3.6,4.0,44,0.00,,OVC090,0.00,VWS V14.01,2013-03-01 08:41:00,
2013-03-01 01:46:00,21.7,3.2,30.22,WSW,238,6.3,6.3,44,0.00,,OVC090,0.00,VWS V14.01,2013-03-01 08:46:00,
2013-03-01 01:51:00,21.0,3.0,30.22,SW,226,4.5,6.3,45,0.00,,OVC090,0.00,VWS V14.01,2013-03-01 08:51:00,
2013-03-01 01:56:00,20.7,2.7,30.22,WSW,240,5.4,6.3,45,0.00,,OVC090,0.00,VWS V14.01,2013-03-01 08:56:00,
2013-03-01 02:01:00,19.9,2.0,30.22,WSW,253,4.9,4.9,45,0.00,,OVC090,0.00,VWS V14.01,2013-03-01 09:01:00,
2013-03-01 02:06:00,19.9,2.0,30.22,WSW,238,6.3,6.3,45,0.00,,OVC090,0.00,VWS V14.01,2013-03-01 09:06:00,
2013-03-01 02:11:00,20.8,2.9,30.22,WSW,246,5.8,6.3,45,0.00,,OVC090,0.00,VWS V14.01,2013-03-01 09:11:00,
2013-03-01 02:16:00,21.6,3.0,30.22,WSW,247,5.4,7.6,44,0.00,,OVC090,0.00,VWS V14.01,2013-03-01 09:16:00,
2013-03-01 02:21:00,21.7,3.2,30.22,WSW,240,8.1,8.3,44,0.00,,OVC090,0.00,VWS V14.01,2013-03-01 09:21:00,
2013-03-01 02:26:00,22.6,3.5,30.22,SW,223,5.8,8.3,43,0.00,,OVC090,0.00,VWS V14.01,2013-03-01 09:26:00,
2013-03-01 02:31:00,23.0,3.8,30.22,SW,235,6.3,6.3,43,0.00,,OVC090,0.00,VWS V14.01,2013-03-01 09:31:00,
2013-03-01 02:36:00,22.8,3.7,30.22,WSW,248,4.5,6.3,43,0.00,,OVC090,0.00,VWS V14.01,2013-03-01 09:36:00,
2013-03-01 02:41:00,23.5,4.3,30.22,SW,231,5.8,6.7,43,0.00,,OVC090,0.00,VWS V14.01,2013-03-01 09:41:00,
2013-03-01 02:46:00,25.2,5.8,30.22,SW,228,5.8,7.6,43,0.00,,OVC090,0.00,VWS V14.01,2013-03-01 09:46:00,
2013-03-01 02:51:00,25.7,6.3,30.22,WSW,251,5.4,7.6,43,0.00,,OVC090,0.00,VWS V14.01,2013-03-01 09:51:00,
2013-03-01 02:56:00,25.7,6.8,30.22,WSW,246,3.6,7.6,44,0.00,,OVC090,0.00,VWS V14.01,2013-03-01 09:56:00,
2013-03-01 03:01:00,25.9,6.5,30.22,WSW,247,0.0,0.0,43,0.00,,OVC090,0.00,VWS V14.01,2013-03-01 10:01:00,
2013-03-01 03:06:00,26.8,7.3,30.22,SSW,210,2.2,3.6,43,0.00,,FEW090,0.00,VWS V14.01,2013-03-01 10:06:00,
2013-03-01 03:11:00,26.4,7.5,30.22,SW,215,4.0,4.0,44,0.00,,FEW090,0.00,VWS V14.01,2013-03-01 10:11:00,
2013-03-01 03:16:00,26.1,7.6,30.22,SW,222,4.0,4.5,45,0.00,,FEW090,0.00,VWS V14.01,2013-03-01 10:16:00,
2013-03-01 03:21:00,26.1,8.1,30.22,SW,224,3.6,4.5,46,0.00,,FEW090,0.00,VWS V14.01,2013-03-01 10:21:00,
2013-03-01 03:26:00,26.4,9.4,30.22,WNW,296,3.6,6.3,48,0.00,,FEW090,0.00,VWS V14.01,2013-03-01 10:26:00,
2013-03-01 03:31:00,28.9,9.8,30.22,NW,310,6.3,6.3,44,0.00,,FEW090,0.00,VWS V14.01,2013-03-01 10:31:00,
2013-03-01 03:36:00,30.4,10.6,30.22,NW,314,4.9,6.3,43,0.00,,FEW090,0.00,VWS V14.01,2013-03-01 10:36:00,
2013-03-01 03:41:00,28.9,10.3,30.22,NW,314,2.7,6.3,45,0.00,,FEW090,0.00,VWS V14.01,2013-03-01 10:41:00,
2013-03-01 03:46:00,27.5,9.0,30.22,NW,314,0.0,6.3,45,0.00,,FEW090,0.00,VWS V14.01,2013-03-01 10:46:00,
2013-03-01 03:51:00,25.9,7.5,30.22,SSW,197,2.2,6.3,45,0.00,,FEW090,0.00,VWS V14.01,2013-03-01 10:51:00,
2013-03-01 03:56:00,24.6,6.8,30.22,South,177,3.6,6.3,46,0.00,,FEW090,0.00,VWS V14.01,2013-03-01 10:56:00,
2013-03-01 04:01:00,25.3,9.8,30.22,South,175,2.7,6.3,51,0.00,,FEW090,0.00,VWS V14.01,2013-03-01 11:01:00,
2013-03-01 04:06:00,25.5,9.0,30.22,SSW,199,4.0,4.0,49,0.00,,BKN070,0.00,VWS V14.01,2013-03-01 11:06:00,
2013-03-01 04:11:00,23.9,8.9,30.22,SW,231,5.4,5.4,52,0.00,,BKN070,0.00,VWS V14.01,2013-03-01 11:11:00,
2013-03-01 04:16:00,22.6,8.1,30.22,WSW,243,3.1,5.8,53,0.00,,BKN070,0.00,VWS V14.01,2013-03-01 11:16:00,
2013-03-01 04:21:00,21.9,8.2,30.22,SSW,206,3.1,5.8,55,0.00,,BKN070,0.00,VWS V14.01,2013-03-01 11:21:00,
2013-03-01 04:26:00,21.7,8.9,30.22,WSW,243,4.9,5.8,57,0.00,,BKN070,0.00,VWS V14.01,2013-03-01 11:26:00,
2013-03-01 04:31:00,21.2,8.7,30.22,WSW,250,6.3,6.3,58,0.00,,BKN070,0.00,VWS V14.01,2013-03-01 11:31:00,
2013-03-01 04:36:00,21.0,9.3,30.22,WSW,246,5.8,6.3,60,0.00,,BKN070,0.00,VWS V14.01,2013-03-01 11:36:00,
2013-03-01 04:41:00,20.5,9.6,30.22,WSW,250,5.4,6.3,62,0.00,,BKN070,0.00,VWS V14.01,2013-03-01 11:41:00,
2013-03-01 04:46:00,21.2,11.3,30.22,SW,234,5.8,6.3,65,0.00,,BKN070,0.00,VWS V14.01,2013-03-01 11:46:00,
2013-03-01 04:51:00,22.3,11.2,30.22,SW,235,6.3,7.2,62,0.00,,BKN070,0.00,VWS V14.01,2013-03-01 11:51:00,
2013-03-01 04:56:00,22.6,10.9,30.22,SW,236,5.8,7.6,60,0.00,,BKN070,0.00,VWS V14.01,2013-03-01 11:56:00,
2013-03-01 05:01:00,22.8,10.6,30.22,WSW,238,7.6,7.6,59,0.00,,BKN070,0.00,VWS V14.01,2013-03-01 12:01:00,
2013-03-01 05:06:00,22.1,10.0,30.22,SSW,213,6.3,7.6,59,0.00,,CLR,0.00,VWS V14.01,2013-03-01 12:06:00,
2013-03-01 05:11:00,22.1,11.1,30.22,SW,224,6.3,7.6,62,0.00,,CLR,0.00,VWS V14.01,2013-03-01 12:11:00,
2013-03-01 05:16:00,22.8,11.8,30.22,SW,216,5.8,7.6,62,0.00,,CLR,0.00,VWS V14.01,2013-03-01 12:16:00,
2013-03-01 05:21:00,23.5,11.7,30.22,SW,224,7.6,8.1,60,0.00,,CLR,0.00,VWS V14.01,2013-03-01 12:21:00,
2013-03-01 05:26:00,24.3,12.0,30.22,WSW,241,5.4,8.1,59,0.00,,CLR,0.00,VWS V14.01,2013-03-01 12:26:00,
2013-03-01 05:31:00,23.5,10.6,30.22,SW,236,5.8,5.8,57,0.00,,CLR,0.00,VWS V14.01,2013-03-01 12:31:00,
2013-03-01 05:36:00,25.0,13.1,30.22,South,191,7.2,7.2,60,0.00,,CLR,0.00,VWS V14.01,2013-03-01 12:36:00,
2013-03-01 05:41:00,24.4,12.2,30.22,SSW,208,6.3,7.6,59,0.00,,CLR,0.00,VWS V14.01,2013-03-01 12:41:00,
2013-03-01 05:46:00,25.3,12.6,30.22,SW,232,6.3,7.6,58,0.00,,CLR,0.00,VWS V14.01,2013-03-01 12:46:00,
2013-03-01 05:51:00,26.2,12.7,30.22,South,170,4.9,7.6,56,0.00,,CLR,0.00,VWS V14.01,2013-03-01 12:51:00,
2013-03-01 05:56:00,25.9,12.8,30.22,SW,217,6.3,7.6,57,0.00,,CLR,0.00,VWS V14.01,2013-03-01 12:56:00,
2013-03-01 06:01:00,26.1,12.9,30.22,SW,224,3.1,3.6,57,0.00,,CLR,0.00,VWS V14.01,2013-03-01 13:01:00,
2013-03-01 06:06:00,26.6,13.4,30.22,SSE,158,3.6,5.8,57,0.00,,CLR,0.00,VWS V14.01,2013-03-01 13:06:00,
2013-03-01 06:11:00,27.7,13.6,30.25,South,170,4.9,5.8,55,0.00,,CLR,0.00,VWS V14.01,2013-03-01 13:11:00,
2013-03-01 06:16:00,27.9,13.4,30.25,South,187,3.6,5.8,54,0.00,,CLR,0.00,VWS V14.01,2013-03-01 13:16:00,
2013-03-01 06:21:00,28.2,13.7,30.25,SSW,196,4.0,5.8,54,0.00,,CLR,0.00,VWS V14.01,2013-03-01 13:21:00,
2013-03-01 06:26:00,27.5,13.5,30.22,West,266,6.3,6.3,55,0.00,,CLR,0.00,VWS V14.01,2013-03-01 13:26:00,
2013-03-01 06:31:00,26.8,13.6,30.22,WSW,240,5.4,5.4,57,0.00,,CLR,0.00,VWS V14.01,2013-03-01 13:31:00,
2013-03-01 06:36:00,26.6,14.6,30.22,SW,232,4.5,6.3,60,0.00,,CLR,0.00,VWS V14.01,2013-03-01 13:36:00,
2013-03-01 06:41:00,27.5,15.1,30.25,SW,227,5.4,6.3,59,0.00,,CLR,0.00,VWS V14.01,2013-03-01 13:41:00,
2013-03-01 06:46:00,28.2,15.4,30.25,SW,221,2.7,6.3,58,0.00,,CLR,0.00,VWS V14.01,2013-03-01 13:46:00,
2013-03-01 06:51:00,29.3,15.6,30.25,SSW,192,3.6,6.3,56,0.00,,CLR,0.00,VWS V14.01,2013-03-01 13:51:00,
2013-03-01 06:56:00,30.2,16.0,30.25,SSW,198,0.0,6.3,55,0.00,,CLR,0.00,VWS V14.01,2013-03-01 13:56:00,
2013-03-01 07:01:00,30.4,15.3,30.25,SSW,198,0.0,0.0,53,0.00,,CLR,0.00,VWS V14.01,2013-03-01 14:01:00,
2013-03-01 07:06:00,31.1,15.1,30.25,SSW,198,0.0,2.2,51,0.00,,CLR,0.00,VWS V14.01,2013-03-01 14:06:00,
2013-03-01 07:11:00,31.3,14.4,30.25,West,265,0.0,2.2,49,0.00,,CLR,0.00,VWS V14.01,2013-03-01 14:11:00,
2013-03-01 07:16:00,33.8,18.5,30.25,NW,317,5.8,6.7,53,0.00,,CLR,0.00,VWS V14.01,2013-03-01 14:16:00,
2013-03-01 07:21:00,35.4,18.6,30.25,NW,321,3.6,6.7,50,0.00,,CLR,0.00,VWS V14.01,2013-03-01 14:21:00,
2013-03-01 07:26:00,35.1,18.3,30.25,North,7,4.0,6.7,50,0.00,,CLR,0.00,VWS V14.01,2013-03-01 14:26:00,
2013-03-01 07:31:00,34.9,18.1,30.25,North,6,3.1,3.6,50,0.00,,CLR,0.00,VWS V14.01,2013-03-01 14:31:00,
2013-03-01 07:36:00,36.1,19.3,30.25,North,0,2.2,4.0,50,0.00,,CLR,0.00,VWS V14.01,2013-03-01 14:36:00,
2013-03-01 07:41:00,36.5,19.2,30.25,North,11,3.1,4.0,49,0.00,,CLR,0.00,VWS V14.01,2013-03-01 14:41:00,
2013-03-01 07:46:00,35.8,18.0,30.25,ENE,65,2.7,4.0,48,0.00,,CLR,0.00,VWS V14.01,2013-03-01 14:46:00,
2013-03-01 07:51:00,35.2,16.5,30.25,SE,130,3.6,4.0,46,0.00,,CLR,0.00,VWS V14.01,2013-03-01 14:51:00,
2013-03-01 07:56:00,35.4,16.2,30.25,SE,138,6.3,6.3,45,0.00,,CLR,0.00,VWS V14.01,2013-03-01 14:56:00,
2013-03-01 08:01:00,35.4,16.7,30.25,SSE,165,4.0,4.0,46,0.00,,CLR,0.00,VWS V14.01,2013-03-01 15:01:00,
2013-03-01 08:06:00,35.4,16.7,30.25,SSE,148,4.0,5.4,46,0.00,,SCT120,0.00,VWS V14.01,2013-03-01 15:06:00,
2013-03-01 08:11:00,35.4,16.2,30.25,SSE,150,4.0,5.4,45,0.00,,SCT120,0.00,VWS V14.01,2013-03-01 15:11:00,
2013-03-01 08:16:00,35.1,16.4,30.25,SSE,149,3.1,5.4,46,0.00,,SCT120,0.00,VWS V14.01,2013-03-01 15:16:00,
2013-03-01 08:21:00,35.4,15.2,30.25,SSE,167,2.2,5.4,43,0.00,,SCT120,0.00,VWS V14.01,2013-03-01 15:21:00,
2013-03-01 08:26:00,35.4,15.2,30.25,SE,139,4.0,5.4,43,0.00,,SCT120,0.00,VWS V14.01,2013-03-01 15:26:00,
2013-03-01 08:31:00,35.2,15.5,30.25,SW,228,5.4,5.8,44,0.00,,SCT120,0.00,VWS V14.01,2013-03-01 15:31:00,
2013-03-01 08:36:00,35.2,16.0,30.25,WSW,245,4.9,5.4,45,0.00,,SCT120,0.00,VWS V14.01,2013-03-01 15:36:00,
2013-03-01 08:41:00,35.1,16.4,30.25,SW,225,4.0,5.4,46,0.00,,SCT120,0.00,VWS V14.01,2013-03-01 15:41:00,
2013-03-01 08:46:00,35.2,16.0,30.25,SW,226,3.1,5.4,45,0.00,,SCT120,0.00,VWS V14.01,2013-03-01 15:46:00,
2013-03-01 08:51:00,35.2,17.5,30.25,SW,227,4.0,5.4,48,0.00,,SCT120,0.00,VWS V14.01,2013-03-01 15:51:00,
2013-03-01 08:56:00,35.1,17.8,30.25,SW,215,4.9,5.4,49,0.00,,SCT120,0.00,VWS V14.01,2013-03-01 15:56:00,
2013-03-01 09:01:00,35.2,18.0,30.25,SSW,196,5.4,5.8,49,0.00,,SCT120,0.00,VWS V14.01,2013-03-01 16:01:00,
2013-03-01 09:06:00,35.4,18.2,30.25,WSW,250,3.6,4.9,49,0.00,,BKN120,0.00,VWS V14.01,2013-03-01 16:06:00,
2013-03-01 09:11:00,35.4,18.2,30.25,WSW,254,3.6,6.3,49,0.00,,BKN120,0.00,VWS V14.01,2013-03-01 16:11:00,
2013-03-01 09:16:00,35.6,17.9,30.25,South,191,0.0,6.3,48,0.00,,BKN120,0.00,VWS V14.01,2013-03-01 16:16:00,
2013-03-01 09:21:00,35.6,18.8,30.25,SW,226,2.7,6.3,50,0.00,,BKN120,0.00,VWS V14.01,2013-03-01 16:21:00,
2013-03-01 09:26:00,35.6,18.8,30.25,SW,226,2.7,6.3,50,0.00,,BKN120,0.00,VWS V14.01,2013-03-01 16:26:00,
2013-03-01 09:31:00,35.8,18.5,30.25,SSE,155,0.0,6.3,49,0.00,,BKN120,0.00,VWS V14.01,2013-03-01 16:31:00,
2013-03-01 09:36:00,36.3,19.0,30.25,SW,233,5.8,5.8,49,0.00,,BKN120,0.00,VWS V14.01,2013-03-01 16:36:00,
2013-03-01 09:41:00,36.5,18.7,30.25,South,170,4.9,5.8,48,0.00,,BKN120,0.00,VWS V14.01,2013-03-01 16:41:00,
2013-03-01 09:46:00,37.0,17.2,30.25,SSE,164,4.9,6.7,44,0.00,,BKN120,0.00,VWS V14.01,2013-03-01 16:46:00,
2013-03-01 09:51:00,37.0,16.1,30.25,South,177,5.8,6.7,42,0.00,,BKN120,0.00,VWS V14.01,2013-03-01 16:51:00,
2013-03-01 09:56:00,36.9,15.9,30.25,SE,124,3.1,7.6,42,0.00,,BKN120,0.00,VWS V14.01,2013-03-01 16:56:00,
2013-03-01 10:01:00,37.6,16.0,30.25,ESE,117,0.0,7.6,41,0.00,,BKN120,0.00,VWS V14.01,2013-03-01 17:01:00,
2013-03-01 10:06:00,37.9,17.5,30.25,WSW,247,2.7,4.0,43,0.00,,OVC100,0.00,VWS V14.01,2013-03-01 17:06:00,
2013-03-01 10:11:00,38.1,17.1,30.25,SW,219,3.6,4.0,42,0.00,,OVC100,0.00,VWS V14.01,2013-03-01 17:11:00,
2013-03-01 10:16:00,37.9,17.5,30.25,South,182,4.0,4.9,43,0.00,,OVC100,0.00,VWS V14.01,2013-03-01 17:16:00,
2013-03-01 10:21:00,38.7,17.6,30.25,West,262,4.5,5.4,42,0.00,,OVC100,0.00,VWS V14.01,2013-03-01 17:21:00,
2013-03-01 10:26:00,38.7,17.6,30.25,SSW,194,6.3,7.6,42,0.00,,OVC100,0.00,VWS V14.01,2013-03-01 17:26:00,
2013-03-01 10:31:00,40.3,17.9,30.25,SW,233,3.1,7.6,40,0.00,,OVC100,0.00,VWS V14.01,2013-03-01 17:31:00,
2013-03-01 10:36:00,41.4,18.3,30.25,SSW,196,3.6,4.0,39,0.00,,OVC100,0.00,VWS V14.01,2013-03-01 17:36:00,
2013-03-01 10:41:00,43.0,20.3,30.25,SW,233,4.5,5.4,40,0.00,,OVC100,0.00,VWS V14.01,2013-03-01 17:41:00,
2013-03-01 10:46:00,43.2,19.9,30.25,SSW,209,2.7,5.4,39,0.00,,OVC100,0.00,VWS V14.01,2013-03-01 17:46:00,
2013-03-01 10:51:00,43.9,19.9,30.25,SSW,195,0.0,5.4,38,0.00,,OVC100,0.00,VWS V14.01,2013-03-01 17:51:00,
2013-03-01 10:56:00,42.4,18.6,30.25,SE,141,3.1,5.4,38,0.00,,OVC100,0.00,VWS V14.01,2013-03-01 17:56:00,
2013-03-01 11:01:00,42.4,18.6,30.25,SSE,151,3.6,5.4,38,0.00,,OVC100,0.00,VWS V14.01,2013-03-01 18:01:00,
2013-03-01 11:06:00,44.1,20.1,30.25,SSE,159,0.0,5.4,38,0.00,,OVC075,0.00,VWS V14.01,2013-03-01 18:06:00,
2013-03-01 11:11:00,44.8,19.5,30.25,SSE,161,3.1,5.4,36,0.00,,OVC075,0.00,VWS V14.01,2013-03-01 18:11:00,
2013-03-01 11:16:00,45.9,20.4,30.25,SSE,168,2.7,5.4,36,0.00,,OVC075,0.00,VWS V14.01,2013-03-01 18:16:00,
2013-03-01 11:21:00,46.0,21.2,30.25,SSW,197,3.6,5.4,37,0.00,,OVC075,0.00,VWS V14.01,2013-03-01 18:21:00,
2013-03-01 11:26:00,45.1,19.1,30.25,South,186,3.6,5.4,35,0.00,,OVC075,0.00,VWS V14.01,2013-03-01 18:26:00,
2013-03-01 11:31:00,45.3,20.0,30.25,South,177,3.1,5.4,36,0.00,,OVC075,0.00,VWS V14.01,2013-03-01 18:31:00,
2013-03-01 11:36:00,46.0,21.2,30.25,South,187,2.7,3.6,37,0.00,,OVC075,0.00,VWS V14.01,2013-03-01 18:36:00,
2013-03-01 11:41:00,46.6,20.4,30.25,SSW,208,3.6,3.6,35,0.00,,OVC075,0.00,VWS V14.01,2013-03-01 18:41:00,
2013-03-01 11:46:00,47.1,20.9,30.25,SSW,208,2.7,3.6,35,0.00,,OVC075,0.00,VWS V14.01,2013-03-01 18:46:00,
2013-03-01 11:51:00,46.6,19.0,30.25,SSW,202,0.0,3.6,33,0.00,,OVC075,0.00,VWS V14.01,2013-03-01 18:51:00,
2013-03-01 11:56:00,47.1,20.9,30.25,SSW,213,4.0,4.0,35,0.00,,OVC075,0.00,VWS V14.01,2013-03-01 18:56:00,
2013-03-01 12:01:00,46.2,19.4,30.25,South,188,3.6,5.8,34,0.00,,OVC075,0.00,VWS V14.01,2013-03-01 19:01:00,
2013-03-01 12:06:00,45.9,19.1,30.25,SSE,164,2.7,4.9,34,0.00,,BKN110,0.00,VWS V14.01,2013-03-01 19:06:00,
2013-03-01 12:11:00,48.0,20.3,30.25,SSE,166,0.0,4.9,33,0.00,,BKN110,0.00,VWS V14.01,2013-03-01 19:11:00,
2013-03-01 12:16:00,46.9,19.4,30.25,SE,140,2.7,4.9,33,0.00,,BKN110,0.00,VWS V14.01,2013-03-01 19:16:00,
2013-03-01 12:21:00,45.5,18.1,30.25,SE,126,4.0,4.9,33,0.00,,BKN110,0.00,VWS V14.01,2013-03-01 19:21:00,
2013-03-01 12:26:00,47.7,20.0,30.25,SE,125,0.0,4.9,33,0.00,,BKN110,0.00,VWS V14.01,2013-03-01 19:26:00,
2013-03-01 12:31:00,49.3,20.7,30.25,ESE,102,0.0,4.9,32,0.00,,BKN110,0.00,VWS V14.01,2013-03-01 19:31:00,
2013-03-01 12:36:00,48.9,19.6,30.25,ESE,102,0.0,0.0,31,0.00,,BKN110,0.00,VWS V14.01,2013-03-01 19:36:00,
2013-03-01 12:41:00,49.8,20.4,30.25,East,101,0.0,0.0,31,0.00,,BKN110,0.00,VWS V14.01,2013-03-01 19:41:00,
2013-03-01 12:46:00,53.1,22.5,30.25,ESE,102,0.0,0.0,30,0.00,,BKN110,0.00,VWS V14.01,2013-03-01 19:46:00,
2013-03-01 12:51:00,49.1,19.8,30.25,ESE,109,3.6,4.9,31,0.00,,BKN110,0.00,VWS V14.01,2013-03-01 19:51:00,
2013-03-01 12:55:00,48.4,19.9,30.22,East,95,2.7,4.9,32,0.00,,BKN110,0.00,VWS V14.01,2013-03-01 19:55:00,
2013-03-01 13:00:00,49.6,21.0,30.22,East,95,0.0,4.9,32,0.00,,BKN110,0.00,VWS V14.01,2013-03-01 20:00:00,
2013-03-01 13:05:00,51.3,21.7,30.22,SE,143,0.0,4.0,31,0.00,,BKN090,0.00,VWS V14.01,2013-03-01 20:05:00,
2013-03-01 13:10:00,52.2,21.7,30.22,South,185,2.2,4.0,30,0.00,,BKN090,0.00,VWS V14.01,2013-03-01 20:10:00,
2013-03-01 13:15:00,51.6,21.2,30.22,South,191,2.7,4.0,30,0.00,,BKN090,0.00,VWS V14.01,2013-03-01 20:15:00,
2013-03-01 13:20:00,51.3,20.9,30.22,South,191,0.0,4.0,30,0.00,,BKN090,0.00,VWS V14.01,2013-03-01 20:20:00,
2013-03-01 13:25:00,51.3,21.7,30.22,SE,137,0.0,4.0,31,0.00,,BKN090,0.00,VWS V14.01,2013-03-01 20:25:00,
2013-03-01 13:30:00,50.2,20.7,30.22,ESE,109,2.2,4.0,31,0.00,,BKN090,0.00,VWS V14.01,2013-03-01 20:30:00,
2013-03-01 13:35:00,47.8,19.4,30.22,ESE,105,4.0,4.0,32,0.00,,BKN090,0.00,VWS V14.01,2013-03-01 20:35:00,
2013-03-01 13:40:00,48.9,21.1,30.22,ENE,62,3.6,4.0,33,0.00,,BKN090,0.00,VWS V14.01,2013-03-01 20:40:00,
2013-03-01 13:45:00,49.8,21.9,30.22,NE,34,0.0,4.0,33,0.00,,BKN090,0.00,VWS V14.01,2013-03-01 20:45:00,
2013-03-01 13:51:00,50.2,21.5,30.22,NE,48,3.6,4.0,32,0.00,,BKN090,0.00,VWS V14.01,2013-03-01 20:51:00,
2013-03-01 13:56:00,50.2,21.5,30.22,NNE,19,0.0,4.0,32,0.00,,BKN090,0.00,VWS V14.01,2013-03-01 20:56:00,
2013-03-01 14:01:00,49.6,21.0,30.22,NNW,346,2.7,5.4,32,0.00,,BKN090,0.00,VWS V14.01,2013-03-01 21:01:00,
2013-03-01 14:06:00,49.5,20.9,30.22,NNE,32,3.6,4.9,32,0.00,,BKN090,0.00,VWS V14.01,2013-03-01 21:06:00,
2013-03-01 14:11:00,50.5,21.8,30.22,NE,38,2.2,4.9,32,0.00,,BKN090,0.00,VWS V14.01,2013-03-01 21:11:00,
2013-03-01 14:16:00,50.2,21.5,30.22,NE,51,3.1,4.9,32,0.00,,BKN090,0.00,VWS V14.01,2013-03-01 21:16:00,
2013-03-01 14:21:00,50.7,21.2,30.22,NE,56,0.0,4.9,31,0.00,,BKN090,0.00,VWS V14.01,2013-03-01 21:21:00,
2013-03-01 14:26:00,50.7,22.0,30.22,ENE,64,4.9,6.3,32,0.00,,BKN090,0.00,VWS V14.01,2013-03-01 21:26:00,
2013-03-01 14:31:00,47.8,20.9,30.22,ENE,57,3.1,6.3,34,0.00,,BKN090,0.00,VWS V14.01,2013-03-01 21:31:00,
2013-03-01 14:36:00,48.9,21.1,30.22,ESE,106,4.9,5.4,33,0.00,,BKN090,0.00,VWS V14.01,2013-03-01 21:36:00,
2013-03-01 14:41:00,52.7,22.9,30.22,NE,38,0.0,5.4,31,0.00,,BKN090,0.00,VWS V14.01,2013-03-01 21:41:00,
2013-03-01 14:46:00,53.2,22.6,30.22,North,353,4.9,5.4,30,0.00,,BKN090,0.00,VWS V14.01,2013-03-01 21:46:00,
2013-03-01 14:51:00,52.0,21.5,30.22,North,357,3.6,5.8,30,0.00,,BKN090,0.00,VWS V14.01,2013-03-01 21:51:00,
2013-03-01 14:56:00,50.7,21.2,30.22,NNW,345,2.7,5.8,31,0.00,,BKN090,0.00,VWS V14.01,2013-03-01 21:56:00,
2013-03-01 15:01:00,48.7,20.9,30.22,North,5,2.7,5.8,33,0.00,,BKN090,0.00,VWS V14.01,2013-03-01 22:01:00,
2013-03-01 15:06:00,47.8,21.5,30.22,NNW,339,4.9,5.8,35,0.00,,CLR,0.00,VWS V14.01,2013-03-01 22:06:00,
2013-03-01 15:11:00,47.5,22.5,30.22,North,2,4.9,5.8,37,0.00,,CLR,0.00,VWS V14.01,2013-03-01 22:11:00,
2013-03-01 15:16:00,48.0,23.0,30.22,North,0,4.9,5.8,37,0.00,,CLR,0.00,VWS V14.01,2013-03-01 22:16:00,
2013-03-01 15:21:00,48.9,23.2,30.22,North,357,2.7,5.8,36,0.00,,CLR,0.00,VWS V14.01,2013-03-01 22:21:00,
2013-03-01 15:26:00,50.7,24.1,30.22,NNE,19,3.6,5.8,35,0.00,,CLR,0.00,VWS V14.01,2013-03-01 22:26:00,
2013-03-01 15:31:00,53.2,24.2,30.22,NNE,23,5.8,5.8,32,0.00,,CLR,0.00,VWS V14.01,2013-03-01 22:31:00,
2013-03-01 15:36:00,54.5,23.7,30.22,NNE,23,6.3,6.3,30,0.00,,CLR,0.00,VWS V14.01,2013-03-01 22:36:00,
2013-03-01 15:41:00,55.8,24.0,30.22,NNE,16,5.8,6.3,29,0.00,,CLR,0.00,VWS V14.01,2013-03-01 22:41:00,
2013-03-01 15:46:00,56.3,24.5,30.22,NNE,22,5.4,6.3,29,0.00,,CLR,0.00,VWS V14.01,2013-03-01 22:46:00,
2013-03-01 15:51:00,55.6,23.0,30.22,NE,36,5.4,6.7,28,0.00,,CLR,0.00,VWS V14.01,2013-03-01 22:51:00,
2013-03-01 15:56:00,55.9,23.3,30.22,NNE,27,6.3,7.6,28,0.00,,CLR,0.00,VWS V14.01,2013-03-01 22:56:00,
2013-03-01 16:01:00,55.8,23.2,30.22,NNE,25,5.4,7.6,28,0.00,,CLR,0.00,VWS V14.01,2013-03-01 23:01:00,
2013-03-01 16:06:00,55.6,23.0,30.22,North,11,2.7,6.7,28,0.00,,CLR,0.00,VWS V14.01,2013-03-01 23:06:00,
2013-03-01 16:11:00,53.8,22.3,30.22,North,8,5.4,6.7,29,0.00,,CLR,0.00,VWS V14.01,2013-03-01 23:11:00,
2013-03-01 16:16:00,53.4,22.0,30.22,North,0,2.2,6.7,29,0.00,,CLR,0.00,VWS V14.01,2013-03-01 23:16:00,
2013-03-01 16:21:00,53.4,22.8,30.22,NNW,341,0.0,6.7,30,0.00,,CLR,0.00,VWS V14.01,2013-03-01 23:21:00,
2013-03-01 16:26:00,51.1,21.5,30.22,NW,314,3.1,6.7,31,0.00,,CLR,0.00,VWS V14.01,2013-03-01 23:26:00,
2013-03-01 16:31:00,50.9,22.1,30.22,NW,306,2.2,6.7,32,0.00,,CLR,0.00,VWS V14.01,2013-03-01 23:31:00,
2013-03-01 16:36:00,48.4,20.6,30.22,NW,306,0.0,0.0,33,0.00,,CLR,0.00,VWS V14.01,2013-03-01 23:36:00,
2013-03-01 16:41:00,46.2,20.8,30.22,NW,306,0.0,0.0,36,0.00,,CLR,0.00,VWS V14.01,2013-03-01 23:41:00,
2013-03-01 16:46:00,46.4,21.6,30.22,NW,306,0.0,0.0,37,0.00,,CLR,0.00,VWS V14.01,2013-03-01 23:46:00,
2013-03-01 16:51:00,45.9,21.1,30.22,SE,129,3.6,4.5,37,0.00,,CLR,0.00,VWS V14.01,2013-03-01 23:51:00,
2013-03-01 16:56:00,46.4,21.6,30.22,SE,133,0.0,4.5,37,0.00,,CLR,0.00,VWS V14.01,2013-03-01 23:56:00,
2013-03-01 17:01:00,44.6,20.6,30.22,SE,143,0.0,4.5,38,0.00,,CLR,0.00,VWS V14.01,2013-03-02 00:01:00,
2013-03-01 17:06:00,43.2,19.9,30.22,SE,143,0.0,0.0,39,0.00,,OVC090,0.00,VWS V14.01,2013-03-02 00:06:00,
2013-03-01 17:11:00,41.2,22.5,30.25,West,259,0.0,0.0,47,0.00,,OVC090,0.00,VWS V14.01,2013-03-02 00:11:00,
2013-03-01 17:16:00,39.2,22.6,30.25,West,263,0.0,0.0,51,0.00,,OVC090,0.00,VWS V14.01,2013-03-02 00:16:00,
2013-03-01 17:21:00,37.9,23.2,30.25,SW,235,5.4,5.4,55,0.00,,OVC090,0.00,VWS V14.01,2013-03-02 00:21:00,
2013-03-01 17:25:00,37.2,23.4,30.25,West,270,4.0,5.4,57,0.00,,OVC090,0.00,VWS V14.01,2013-03-02 00:25:00,
2013-03-01 17:30:00,36.0,23.8,30.25,WSW,245,4.0,5.4,61,0.00,,OVC090,0.00,VWS V14.01,2013-03-02 00:30:00,
2013-03-01 17:35:00,35.1,24.5,30.25,WSW,247,4.9,5.4,65,0.00,,OVC090,0.00,VWS V14.01,2013-03-02 00:35:00,
2013-03-01 17:40:00,34.5,24.7,30.25,WSW,253,3.6,6.3,67,0.00,,OVC090,0.00,VWS V14.01,2013-03-02 00:40:00,
2013-03-01 17:45:00,36.3,24.2,30.25,WSW,255,4.9,7.6,61,0.00,,OVC090,0.00,VWS V14.01,2013-03-02 00:45:00,
2013-03-01 17:50:00,35.8,23.7,30.25,WSW,241,5.8,7.6,61,0.00,,OVC090,0.00,VWS V14.01,2013-03-02 00:50:00,
2013-03-01 17:55:00,34.9,24.3,30.25,WSW,246,5.4,7.6,65,0.00,,OVC090,0.00,VWS V14.01,2013-03-02 00:55:00,
2013-03-01 18:00:00,34.9,23.6,30.25,SW,229,5.4,7.6,63,0.00,,OVC090,0.00,VWS V14.01,2013-03-02 01:00:00,
2013-03-01 18:05:00,35.1,23.8,30.25,SW,225,5.4,6.3,63,0.00,,BKN080,0.00,VWS V14.01,2013-03-02 01:05:00,
2013-03-01 18:10:00,35.6,23.5,30.25,SW,226,6.3,7.6,61,0.00,,BKN080,0.00,VWS V14.01,2013-03-02 01:10:00,
2013-03-01 18:15:00,35.2,22.8,30.25,SW,222,5.8,7.6,60,0.00,,BKN080,0.00,VWS V14.01,2013-03-02 01:15:00,
2013-03-01 18:20:00,35.4,22.5,30.25,SW,225,6.3,7.6,59,0.00,,BKN080,0.00,VWS V14.01,2013-03-02 01:20:00,
2013-03-01 18:25:00,35.2,22.4,30.25,WSW,238,3.1,7.6,59,0.00,,BKN080,0.00,VWS V14.01,2013-03-02 01:25:00,
2013-03-01 18:30:00,34.3,22.3,30.25,SSW,204,3.6,7.6,61,0.00,,BKN080,0.00,VWS V14.01,2013-03-02 01:30:00,
2013-03-01 18:35:00,34.3,23.1,30.25,SW,221,5.8,6.3,63,0.00,,BKN080,0.00,VWS V14.01,2013-03-02 01:35:00,
2013-03-01 18:40:00,34.9,23.2,30.25,SW,235,6.3,7.6,62,0.00,,BKN080,0.00,VWS V14.01,2013-03-02 01:40:00,
2013-03-01 18:45:00,35.1,23.4,30.25,WSW,249,5.4,7.6,62,0.00,,BKN080,0.00,VWS V14.01,2013-03-02 01:45:00,
2013-03-01 18:50:00,34.3,23.1,30.25,WSW,247,3.6,7.6,63,0.00,,BKN080,0.00,VWS V14.01,2013-03-02 01:50:00,
2013-03-01 18:55:00,34.0,24.2,30.25,WSW,249,4.0,7.6,67,0.00,,BKN080,0.00,VWS V14.01,2013-03-02 01:55:00,
2013-03-01 19:00:00,33.6,24.2,30.25,WSW,240,5.4,7.6,68,0.00,,BKN080,0.00,VWS V14.01,2013-03-02 02:00:00,
2013-03-01 19:05:00,34.0,24.2,30.25,SSW,209,2.2,4.9,67,0.00,,BKN080,0.00,VWS V14.01,2013-03-02 02:05:00,
2013-03-01 19:10:00,34.5,24.4,30.25,SSW,193,2.7,4.9,66,0.00,,CLR,0.00,VWS V14.01,2013-03-02 02:10:00,
2013-03-01 19:15:00,34.5,23.6,30.25,SW,230,4.0,4.9,64,0.00,,CLR,0.00,VWS V14.01,2013-03-02 02:15:00,
2013-03-01 19:20:00,34.5,24.0,30.25,SW,221,5.8,5.8,65,0.00,,CLR,0.00,VWS V14.01,2013-03-02 02:20:00,
2013-03-01 19:25:00,34.9,23.6,30.25,SW,217,4.0,5.8,63,0.00,,CLR,0.00,VWS V14.01,2013-03-02 02:25:00,
2013-03-01 19:30:00,35.1,23.8,30.25,SSW,211,3.6,5.8,63,0.00,,CLR,0.00,VWS V14.01,2013-03-02 02:30:00,
2013-03-01 19:35:00,35.4,23.7,30.25,SW,232,5.8,5.8,62,0.00,,CLR,0.00,VWS V14.01,2013-03-02 02:35:00,
2013-03-01 19:40:00,36.1,23.6,30.25,SW,229,5.4,6.3,60,0.00,,CLR,0.00,VWS V14.01,2013-03-02 02:40:00,
2013-03-01 19:45:00,36.1,23.2,30.25,SW,236,4.5,6.3,59,0.00,,CLR,0.00,VWS V14.01,2013-03-02 02:45:00,
2013-03-01 19:50:00,36.1,23.6,30.25,WSW,240,2.7,6.3,60,0.00,,CLR,0.00,VWS V14.01,2013-03-02 02:50:00,
2013-03-01 19:55:00,36.5,22.7,30.25,SSW,192,4.0,6.3,57,0.00,,CLR,0.00,VWS V14.01,2013-03-02 02:55:00,
2013-03-01 20:00:00,36.7,22.9,30.25,SSW,194,3.6,6.3,57,0.00,,CLR,0.00,VWS V14.01,2013-03-02 03:00:00,
2013-03-01 20:05:00,36.5,23.1,30.25,SW,215,4.9,4.9,58,0.00,,CLR,0.00,VWS V14.01,2013-03-02 03:05:00,
2013-03-01 20:10:00,36.9,23.5,30.25,WSW,241,4.9,5.4,58,0.00,,CLR,0.00,VWS V14.01,2013-03-02 03:10:00,
2013-03-01 20:15:00,37.0,23.2,30.25,SW,236,4.0,5.4,57,0.00,,CLR,0.00,VWS V14.01,2013-03-02 03:15:00,
2013-03-01 20:20:00,37.0,22.8,30.25,SW,228,5.4,5.4,56,0.00,,CLR,0.00,VWS V14.01,2013-03-02 03:20:00,
2013-03-01 20:25:00,37.6,22.5,30.25,South,184,4.0,6.3,54,0.00,,CLR,0.00,VWS V14.01,2013-03-02 03:25:00,
2013-03-01 20:30:00,37.2,23.0,30.25,SW,224,4.5,6.3,56,0.00,,CLR,0.00,VWS V14.01,2013-03-02 03:30:00,
2013-03-01 20:35:00,37.0,23.2,30.25,WSW,243,5.4,5.8,57,0.00,,CLR,0.00,VWS V14.01,2013-03-02 03:35:00,
2013-03-01 20:40:00,37.0,24.1,30.25,West,262,0.0,5.8,59,0.00,,CLR,0.00,VWS V14.01,2013-03-02 03:40:00,
2013-03-01 20:45:00,36.9,23.9,30.25,WSW,241,4.0,5.8,59,0.00,,CLR,0.00,VWS V14.01,2013-03-02 03:45:00,
2013-03-01 20:50:00,36.9,23.9,30.25,SW,226,3.6,5.8,59,0.00,,CLR,0.00,VWS V14.01,2013-03-02 03:50:00,
2013-03-01 20:55:00,37.0,24.5,30.25,WSW,237,4.0,5.8,60,0.00,,CLR,0.00,VWS V14.01,2013-03-02 03:55:00,
2013-03-01 21:00:00,37.2,24.2,30.25,SW,227,5.8,6.3,59,0.00,,CLR,0.00,VWS V14.01,2013-03-02 04:00:00,
2013-03-01 21:05:00,37.9,23.2,30.25,WSW,241,6.3,6.7,55,0.00,,CLR,0.00,VWS V14.01,2013-03-02 04:05:00,
2013-03-01 21:10:00,37.6,23.7,30.25,WSW,237,5.4,6.7,57,0.00,,CLR,0.00,VWS V14.01,2013-03-02 04:10:00,
2013-03-01 21:15:00,37.4,23.6,30.25,WSW,240,5.8,6.7,57,0.00,,CLR,0.00,VWS V14.01,2013-03-02 04:15:00,
2013-03-01 21:20:00,37.2,23.4,30.25,SSW,201,4.5,6.7,57,0.00,,CLR,0.00,VWS V14.01,2013-03-02 04:20:00,
2013-03-01 21:25:00,37.4,22.3,30.25,SSW,192,4.0,6.7,54,0.00,,CLR,0.00,VWS V14.01,2013-03-02 04:25:00,
2013-03-01 21:30:00,37.2,23.0,30.25,SSW,209,2.7,6.7,56,0.00,,CLR,0.00,VWS V14.01,2013-03-02 04:30:00,
2013-03-01 21:35:00,36.7,23.3,30.25,WSW,239,4.9,5.8,58,0.00,,CLR,0.00,VWS V14.01,2013-03-02 04:35:00,
2013-03-01 21:40:00,36.9,23.1,30.25,WSW,238,5.4,6.3,57,0.00,,CLR,0.00,VWS V14.01,2013-03-02 04:40:00,
2013-03-01 21:45:00,36.9,23.9,30.25,West,269,4.9,6.3,59,0.00,,CLR,0.00,VWS V14.01,2013-03-02 04:45:00,
2013-03-01 21:50:00,36.1,23.6,30.25,WSW,255,3.6,6.3,60,0.00,,CLR,0.00,VWS V14.01,2013-03-02 04:50:00,
2013-03-01 21:55:00,35.6,23.5,30.25,WSW,248,5.4,6.3,61,0.00,,CLR,0.00,VWS V14.01,2013-03-02 04:55:00,
2013-03-01 22:00:00,35.8,23.7,30.25,WSW,240,4.9,6.3,61,0.00,,CLR,0.00,VWS V14.01,2013-03-02 05:00:00,
2013-03-01 22:06:00,35.8,22.9,30.25,SW,233,5.8,5.8,59,0.00,,CLR,0.00,VWS V14.01,2013-03-02 05:06:00,
2013-03-01 22:11:00,36.1,22.0,30.25,SW,222,5.4,5.8,56,0.00,,SCT120,0.00,VWS V14.01,2013-03-02 05:11:00,
2013-03-01 22:16:00,36.3,21.7,30.25,SW,223,4.0,5.8,55,0.00,,SCT120,0.00,VWS V14.01,2013-03-02 05:16:00,
2013-03-01 22:21:00,36.1,21.5,30.25,SSW,207,4.0,5.8,55,0.00,,SCT120,0.00,VWS V14.01,2013-03-02 05:21:00,
2013-03-01 22:26:00,37.4,21.4,30.25,South,181,4.9,5.8,52,0.00,,SCT120,0.00,VWS V14.01,2013-03-02 05:26:00,
2013-03-01 22:31:00,37.6,21.1,30.25,SSE,153,4.0,5.8,51,0.00,,SCT120,0.00,VWS V14.01,2013-03-02 05:31:00,
2013-03-01 22:36:00,37.0,20.6,30.25,SSE,148,4.0,4.0,51,0.00,,SCT120,0.00,VWS V14.01,2013-03-02 05:36:00,
2013-03-01 22:41:00,37.4,20.9,30.25,SE,146,4.5,5.4,51,0.00,,SCT120,0.00,VWS V14.01,2013-03-02 05:41:00,
2013-03-01 22:46:00,37.6,21.1,30.25,South,170,5.8,6.7,51,0.00,,SCT120,0.00,VWS V14.01,2013-03-02 05:46:00,
2013-03-01 22:51:00,37.8,20.3,30.25,South,181,6.3,8.1,49,0.00,,SCT120,0.00,VWS V14.01,2013-03-02 05:51:00,
2013-03-01 22:56:00,37.8,20.8,30.25,SE,145,4.0,8.1,50,0.00,,SCT120,0.00,VWS V14.01,2013-03-02 05:56:00,
2013-03-01 23:01:00,36.9,20.0,30.25,SSE,168,3.6,8.1,50,0.00,,SCT120,0.00,VWS V14.01,2013-03-02 06:01:00,
2013-03-01 23:06:00,36.0,19.6,30.25,WSW,246,5.4,5.4,51,0.00,,SCT120,0.00,VWS V14.01,2013-03-02 06:06:00,
2013-03-01 23:11:00,34.3,19.4,30.25,West,272,0.0,7.6,54,0.00,,CLR,0.00,VWS V14.01,2013-03-02 06:11:00,
2013-03-01 23:16:00,34.0,19.5,30.25,West,261,4.0,7.6,55,0.00,,CLR,0.00,VWS V14.01,2013-03-02 06:16:00,
2013-03-01 23:21:00,33.8,19.4,30.25,SW,218,4.9,7.6,55,0.00,,CLR,0.00,VWS V14.01,2013-03-02 06:21:00,
2013-03-01 23:26:00,33.6,19.2,30.25,SW,216,3.1,7.6,55,0.00,,CLR,0.00,VWS V14.01,2013-03-02 06:26:00,
2013-03-01 23:31:00,33.4,19.4,30.25,WSW,243,5.8,7.6,56,0.00,,CLR,0.00,VWS V14.01,2013-03-02 06:31:00,
2013-03-01 23:36:00,32.7,19.2,30.25,SW,223,5.4,5.8,57,0.00,,CLR,0.00,VWS V14.01,2013-03-02 06:36:00,
2013-03-01 23:41:00,32.9,19.8,30.25,SW,232,5.8,8.1,58,0.00,,CLR,0.00,VWS V14.01,2013-03-02 06:41:00,
2013-03-01 23:46:00,33.1,19.5,30.25,WSW,237,6.3,8.1,57,0.00,,CLR,0.00,VWS V14.01,2013-03-02 06:46:00,
2013-03-01 23:51:00,31.8,18.7,30.25,WSW,246,3.6,8.1,58,0.00,,CLR,0.00,VWS V14.01,2013-03-02 06:51:00,
2013-03-01 23:56:00,31.8,19.1,30.25,West,271,3.6,8.1,59,0.00,,CLR,0.00,VWS V14.01,2013-03-02 06:56:00,